Terminal Aerodrome Forecast
Issued by NWS Blacksburg, VA

Home | Current Version | Previous Version | Text Only | Print | Product List | Glossary On
Versions: 1 2 3 4 5 6 7 8 9 10 11 12 13 14
000
FTUS41 KRNK 250540
TAFDAN
TAF
KDAN 250540Z 2506/2606 03014G22KT 4SM RA SCT003 OVC007
     FM251100 03013G23KT 6SM -RA OVC008
     FM251700 02009G18KT P6SM OVC010
     FM252200 02008KT P6SM OVC015=

USA.gov is the U.S. government's official web portal to all federal, state and local government web resources and services.